Terminal Aerodrome Forecast
Issued by NWS Cleveland, OH

Home | Current Version | Previous Version | Text Only | Print | Product List | Glossary Off
Versions: 1 2 3 4 5 6 7 8 9 10 11 12 13 14 15 16

000
FTUS41 KCLE 201743
TAFTOL
TAF
KTOL 201743Z 2018/2118 22014G22KT P6SM SCT060 BKN080
     FM201900 25015G25KT 6SM -SHRA VCTS BKN045CB
      TEMPO 2019/2023 25020G40KT 2SM TSRA OVC015CB
     FM210100 26014G22KT P6SM BKN028=

USA.gov is the U.S. government's official web portal to all federal, state and local government web resources and services.